Terminal Aerodrome Forecast
Issued by NWS

Current Version | Previous Version | Graphics & Text | Print | Product List | Glossary On
Versions: 1 2 3 4 5 6 7 8 9 10 11 12 13 14 15 16
000
FTUS41 KPBZ 202320
TAFMGW
TAF
KMGW 202320Z 2100/2124 23003KT P6SM OVC035
     FM210300 20004KT 6SM -RA OVC025
     FM210600 24003KT 3SM -RA BR OVC015
     FM210900 VRB03KT 3SM BR OVC008
     FM211400 32004KT P6SM OVC015
     FM211700 32005KT P6SM BKN025
     FM211900 32005KT P6SM BKN035=

USA.gov is the U.S. government's official web portal to all federal, state and local government web resources and services.